Punta Cana, Dominican Republic
Current Conditions -  °F | °C
As of 4:00 PM on Saturday 20 Dec 2014 (Local Time) from MDPC Reporting Station
Scattered Clouds Scattered Clouds  
Wind Chill: 82°   Ceiling: Unl
Heat Index: 87°   Visibility: 6mi
Dew Point: 72°   Wind: 8mph
Humidity: 70%   Direction: 100°E
Pressure: 29.97"   Gusts: NA
Location:  18.57°N, 68.36°W
Report Text: MDPC 202000Z 10007KT 9999 SCT025 28/22 Q1015
Loading
Personal Weather Stations






























Interactive Weather Map New forecast layout! Learn more

10-Day Weather Forecast

Advertisements
Track Severe Weather on mobile